Time;durP1;ratioP1;P1;durP2;ratioP2;P2;SDS_P1;SDS_P2;PMS_P1;PMS_P2;Temp;Humidity;BMP_temperature;BMP_pressure;BME280_temperature;BME280_humidity;BME280_pressure;Samples;Min_cycle;Max_cycle;Signal;HPM_P1;HPM_P2
2022/01/27 00:01:01;;;;;;;41.73;18.77;;;3.00;99.90;;;3.70;100.00;-19852.81;5010088;28;20229;-67
2022/01/27 00:03:35;;;;;;;38.50;19.30;;;3.00;99.90;;;3.64;100.00;-19850.94;5010351;28;20271;-68
2022/01/27 00:06:08;;;;;;;43.30;18.70;;;3.00;99.90;;;3.64;100.00;-19850.78;5011646;28;20213;-66
2022/01/27 00:08:42;;;;;;;38.33;18.37;;;2.90;99.90;;;3.69;100.00;-19852.66;5030721;28;20240;-66
2022/01/27 00:11:13;;;;;;;40.77;18.60;;;3.00;99.90;;;3.58;100.00;-19848.72;5029762;28;20248;-66
2022/01/27 00:13:46;;;;;;;42.17;19.23;;;2.90;99.90;;;3.62;100.00;-19850.09;5029895;28;20737;-66
2022/01/27 00:16:21;;;;;;;36.23;17.80;;;2.90;99.90;;;3.84;100.00;-19857.59;5019661;28;20281;-67
2022/01/27 00:18:53;;;;;;;41.73;19.93;;;3.00;99.90;;;3.73;100.00;-19853.84;5011902;28;20339;-67
2022/01/27 00:21:24;;;;;;;37.93;16.93;;;2.90;99.90;;;3.77;100.00;-19855.22;5012046;28;20229;-65
2022/01/27 00:23:52;;;;;;;34.73;16.27;;;2.90;99.90;;;3.78;100.00;-19855.38;5011702;28;20228;-65
2022/01/27 00:26:21;;;;;;;36.97;18.27;;;3.00;99.90;;;3.76;100.00;-19854.88;5011598;28;20309;-68
2022/01/27 00:28:50;;;;;;;36.80;16.90;;;2.90;99.90;;;3.77;100.00;-19855.22;5026592;28;20294;-66
2022/01/27 00:31:21;;;;;;;36.93;18.67;;;3.00;99.90;;;3.78;100.00;-19855.38;5029968;28;20247;-65
2022/01/27 00:33:53;;;;;;;39.07;17.27;;;2.90;99.90;;;3.72;100.00;-19853.50;5030285;28;20677;-66
2022/01/27 00:36:21;;;;;;;36.10;17.30;;;3.00;99.90;;;3.74;100.00;-19854.34;5031513;28;20308;-67
2022/01/27 00:38:51;;;;;;;35.87;16.53;;;2.90;99.90;;;3.63;100.00;-19850.44;5016768;28;20235;-66
2022/01/27 00:41:21;;;;;;;31.80;16.17;;;2.90;99.90;;;3.54;100.00;-19847.34;5014397;28;20347;-66
2022/01/27 00:43:50;;;;;;;40.43;17.97;;;2.90;99.90;;;3.69;100.00;-19852.47;5014129;28;20263;-66
2022/01/27 00:46:20;;;;;;;35.00;16.30;;;2.80;99.90;;;3.54;100.00;-19847.34;5014117;28;20258;-66
2022/01/27 00:48:51;;;;;;;40.43;17.13;;;2.80;99.90;;;3.58;100.00;-19848.72;5006785;28;20226;-66
2022/01/27 00:51:23;;;;;;;37.03;17.63;;;2.80;99.90;;;3.59;100.00;-19849.06;4994191;28;20254;-65
2022/01/27 00:54:01;;;;;;;31.93;15.97;;;2.80;99.90;;;3.61;100.00;-19849.75;4995002;28;20888;-66
2022/01/27 00:56:37;;;;;;;35.43;16.03;;;2.80;99.90;;;3.52;100.00;-19846.66;5014560;28;20226;-67
2022/01/27 00:59:21;;;;;;;35.07;17.27;;;2.80;99.90;;;3.51;100.00;-19846.31;5014467;28;20307;-66
2022/01/27 01:01:57;;;;;;;31.57;16.50;;;2.70;99.90;;;3.56;100.00;-19848.03;4998706;28;20311;-65
2022/01/27 01:04:31;;;;;;;33.57;16.83;;;2.80;99.90;;;3.54;100.00;-19847.53;4994407;28;20231;-65
2022/01/27 01:07:00;;;;;;;34.87;17.43;;;2.70;99.90;;;3.62;100.00;-19850.25;4994288;28;20232;-66
2022/01/27 01:10:14;;;;;;;35.77;16.87;;;2.70;99.90;;;3.59;100.00;-19849.06;4994653;28;20271;-67
2022/01/27 01:13:26;;;;;;;33.20;15.57;;;2.80;99.90;;;3.48;100.00;-19845.47;4994372;28;20631;-67
2022/01/27 01:15:39;;;;;;;36.57;17.80;;;2.80;99.90;;;3.56;100.00;-19848.03;5006365;28;20253;-65
2022/01/27 01:18:22;;;;;;;32.90;17.30;;;2.80;99.90;;;3.65;100.00;-19851.13;5014279;28;20266;-66
2022/01/27 01:21:14;;;;;;;35.90;17.63;;;2.80;99.90;;;3.54;100.00;-19847.34;5013464;28;20181;-66
2022/01/27 01:29:39;;;;;;;38.43;17.83;;;2.80;99.90;;;3.56;100.00;-19848.22;5032004;28;20250;-67
2022/01/27 01:32:16;;;;;;;34.67;17.50;;;2.80;99.90;;;3.79;100.00;-19855.72;5032105;28;20319;-66
2022/01/27 01:34:47;;;;;;;35.03;18.90;;;2.90;99.90;;;3.50;100.00;-19846.16;5031768;28;20226;-66
2022/01/27 01:37:19;;;;;;;31.07;16.50;;;2.80;99.90;;;3.63;100.00;-19850.44;5032306;28;20268;-67
2022/01/27 01:39:47;;;;;;;31.60;17.30;;;2.90;99.90;;;3.64;100.00;-19850.78;5032327;28;20317;-67
2022/01/27 01:42:16;;;;;;;32.13;16.83;;;2.90;99.90;;;3.72;100.00;-19853.69;5031920;28;20657;-66
2022/01/27 01:44:48;;;;;;;36.43;18.07;;;2.90;99.90;;;3.69;100.00;-19852.66;5032409;28;20241;-66
2022/01/27 01:47:18;;;;;;;31.37;15.40;;;2.90;99.90;;;3.63;100.00;-19850.44;5031889;28;20707;-67
2022/01/27 01:49:46;;;;;;;30.83;15.87;;;2.90;99.90;;;3.79;100.00;-19855.72;5031566;28;20649;-67
2022/01/27 01:52:14;;;;;;;33.97;16.83;;;2.90;99.90;;;3.71;100.00;-19853.16;5032165;28;20436;-67
2022/01/27 01:54:43;;;;;;;31.13;15.90;;;2.90;99.90;;;3.68;100.00;-19852.31;5031948;28;20256;-66
2022/01/27 01:57:11;;;;;;;29.80;15.40;;;3.00;99.90;;;3.65;100.00;-19851.28;5031928;28;20210;-66
2022/01/27 01:59:40;;;;;;;28.47;15.03;;;2.90;99.90;;;3.74;100.00;-19854.34;5032450;28;20227;-67
2022/01/27 02:02:12;;;;;;;27.90;14.93;;;3.00;99.90;;;3.84;100.00;-19857.44;5031342;28;20257;-67
2022/01/27 02:04:40;;;;;;;28.07;15.07;;;3.00;99.90;;;3.77;100.00;-19855.22;5032225;28;20233;-68
2022/01/27 02:07:27;;;;;;;26.63;14.83;;;3.00;99.90;;;3.72;100.00;-19853.69;5031760;28;20222;-67
2022/01/27 02:10:09;;;;;;;26.87;14.57;;;3.00;99.90;;;3.71;100.00;-19853.34;5031594;28;20791;-66
2022/01/27 02:18:24;;;;;;;28.27;13.93;;;3.00;99.90;;;3.66;100.00;-19851.63;5031264;28;20235;-66
2022/01/27 02:20:53;;;;;;;25.60;13.93;;;3.00;99.90;;;3.72;100.00;-19853.50;5032035;28;20246;-67
2022/01/27 02:23:22;;;;;;;26.30;13.47;;;3.00;99.90;;;3.73;100.00;-19854.03;5031524;28;20308;-66
2022/01/27 02:25:50;;;;;;;22.83;12.73;;;3.00;99.90;;;3.93;100.00;-19860.69;5031345;28;20226;-68
2022/01/27 02:28:18;;;;;;;28.27;13.33;;;3.00;99.90;;;4.01;100.00;-19863.25;5031011;28;20328;-66
2022/01/27 02:30:46;;;;;;;21.43;11.80;;;3.10;99.90;;;3.79;100.00;-19855.72;5030811;28;20226;-66
2022/01/27 02:33:14;;;;;;;24.30;13.17;;;3.10;99.90;;;3.82;100.00;-19856.75;5031152;28;20225;-66
2022/01/27 02:35:43;;;;;;;20.73;11.97;;;3.00;99.90;;;3.73;100.00;-19854.03;5031837;28;20207;-66
2022/01/27 02:38:12;;;;;;;19.07;11.57;;;3.00;99.90;;;3.64;100.00;-19850.94;5030607;28;20325;-65
2022/01/27 02:40:49;;;;;;;23.83;13.43;;;2.90;99.90;;;3.82;100.00;-19856.75;5031166;28;20252;-65
2022/01/27 02:43:17;;;;;;;22.37;11.90;;;2.90;99.90;;;3.75;100.00;-19854.69;5030737;28;20357;-65
2022/01/27 02:45:55;;;;;;;20.40;12.40;;;3.00;99.90;;;3.77;100.00;-19855.22;5030951;28;20230;-65
2022/01/27 02:48:26;;;;;;;21.47;11.60;;;3.00;99.90;;;3.65;100.00;-19851.13;5030793;28;20230;-67
2022/01/27 02:50:54;;;;;;;19.37;11.83;;;2.90;99.90;;;3.78;100.00;-19855.38;5031192;28;20238;-66
2022/01/27 02:53:24;;;;;;;22.90;12.67;;;3.00;99.90;;;3.86;100.00;-19858.28;5031441;28;20198;-65
2022/01/27 02:55:52;;;;;;;18.60;10.83;;;3.00;99.90;;;3.83;100.00;-19857.25;5031008;28;20344;-67
2022/01/27 02:58:20;;;;;;;22.47;12.30;;;3.10;99.90;;;3.77;100.00;-19855.03;5030782;28;20704;-67
2022/01/27 03:00:48;;;;;;;19.90;11.20;;;3.00;99.90;;;3.79;100.00;-19855.91;5029608;28;20312;-67
2022/01/27 03:03:16;;;;;;;18.03;11.40;;;2.90;99.90;;;3.69;100.00;-19852.47;5030432;28;20305;-66
2022/01/27 03:05:44;;;;;;;20.23;11.30;;;3.00;99.90;;;3.66;100.00;-19851.44;5030834;28;20207;-66
2022/01/27 03:08:13;;;;;;;20.27;11.10;;;3.00;99.90;;;3.70;100.00;-19852.81;5030192;28;20649;-67
2022/01/27 03:10:58;;;;;;;19.53;11.40;;;3.00;99.90;;;3.76;100.00;-19854.88;5030862;28;20273;-66
2022/01/27 03:13:28;;;;;;;19.07;11.47;;;2.90;99.90;;;3.74;100.00;-19854.19;5030279;28;20706;-66
2022/01/27 03:15:56;;;;;;;20.70;11.73;;;3.00;99.90;;;3.80;100.00;-19856.06;5030476;28;20269;-62
2022/01/27 03:18:24;;;;;;;20.23;12.53;;;2.90;99.90;;;3.61;100.00;-19849.75;5030460;28;20260;-66
2022/01/27 03:20:52;;;;;;;19.57;12.33;;;2.90;99.90;;;3.82;100.00;-19856.75;5031015;28;20578;-66
2022/01/27 03:23:20;;;;;;;18.67;12.00;;;3.00;99.90;;;3.72;100.00;-19853.50;5010875;28;20342;-65
2022/01/27 03:25:50;;;;;;;20.87;12.07;;;2.90;99.90;;;3.73;100.00;-19854.03;5013424;28;20357;-62
2022/01/27 03:28:19;;;;;;;19.87;12.10;;;2.90;99.90;;;3.76;100.00;-19854.88;5029880;28;20253;-63
2022/01/27 03:30:47;;;;;;;23.53;12.47;;;2.90;99.90;;;3.68;100.00;-19852.13;5037801;28;20235;-63
2022/01/27 03:33:16;;;;;;;20.43;11.33;;;2.90;99.90;;;3.65;100.00;-19851.28;5047074;28;20584;-62
2022/01/27 03:35:44;;;;;;;19.43;12.37;;;2.90;99.90;;;3.73;100.00;-19854.03;5030763;28;20285;-63
2022/01/27 03:38:12;;;;;;;19.63;12.07;;;2.90;99.90;;;3.70;100.00;-19852.81;5030061;28;20714;-63
2022/01/27 03:40:40;;;;;;;21.30;12.03;;;2.90;99.90;;;3.45;100.00;-19844.28;5044624;28;20708;-63
2022/01/27 03:43:11;;;;;;;20.07;12.17;;;2.80;99.90;;;3.44;100.00;-19844.09;5039228;28;20252;-63
2022/01/27 03:45:40;;;;;;;19.60;12.47;;;2.70;99.90;;;3.46;100.00;-19844.63;5030204;28;20228;-63
2022/01/27 03:48:08;;;;;;;19.87;12.33;;;2.70;99.90;;;3.52;100.00;-19846.84;5028136;28;20234;-63
2022/01/27 03:50:37;;;;;;;21.77;12.13;;;2.70;99.90;;;3.63;100.00;-19850.44;5010821;28;20289;-63
2022/01/27 03:53:05;;;;;;;20.30;11.60;;;2.70;99.90;;;3.56;100.00;-19848.22;5009920;28;20322;-63
2022/01/27 03:55:33;;;;;;;18.10;11.33;;;2.80;99.90;;;3.55;100.00;-19847.88;5010150;28;20312;-63
2022/01/27 03:58:01;;;;;;;18.33;11.20;;;2.80;99.90;;;3.61;100.00;-19849.75;5009645;28;20493;-63
2022/01/27 04:00:30;;;;;;;19.17;11.20;;;2.80;99.90;;;3.69;100.00;-19852.47;5010061;28;20304;-63
2022/01/27 04:03:03;;;;;;;21.47;12.27;;;2.80;99.90;;;3.61;100.00;-19849.91;5010175;28;20294;-63
2022/01/27 04:05:37;;;;;;;19.33;11.80;;;2.80;99.90;;;3.66;100.00;-19851.44;5010594;28;20280;-63
2022/01/27 04:08:08;;;;;;;19.00;11.20;;;2.80;99.90;;;3.59;100.00;-19849.22;5009606;28;20624;-63
2022/01/27 04:10:37;;;;;;;18.60;10.87;;;2.80;99.90;;;3.59;100.00;-19849.06;5009941;28;20237;-63
2022/01/27 04:13:08;;;;;;;18.10;11.97;;;2.80;99.90;;;3.48;100.00;-19845.47;5013646;28;20309;-63
2022/01/27 04:15:42;;;;;;;17.40;10.73;;;2.80;99.90;;;3.50;100.00;-19846.16;5019772;28;20628;-63
2022/01/27 04:18:10;;;;;;;17.20;10.90;;;2.80;99.90;;;3.57;100.00;-19848.38;5013938;28;20315;-63
2022/01/27 04:20:40;;;;;;;17.93;11.20;;;2.80;99.90;;;3.57;100.00;-19848.53;5014462;28;20198;-69
2022/01/27 04:23:09;;;;;;;18.13;11.40;;;2.80;99.90;;;3.46;100.00;-19844.63;5025627;28;20694;-63
2022/01/27 04:25:38;;;;;;;20.10;12.00;;;2.80;99.90;;;3.68;100.00;-19852.13;5033463;28;20668;-63
2022/01/27 04:28:10;;;;;;;20.93;12.17;;;2.80;99.90;;;3.59;100.00;-19849.06;5043550;28;20692;-63
2022/01/27 04:30:41;;;;;;;17.50;10.60;;;2.80;99.90;;;3.56;100.00;-19848.03;5046708;28;20746;-64
2022/01/27 04:33:09;;;;;;;20.63;11.83;;;2.80;99.90;;;3.48;100.00;-19845.47;5033378;28;20222;-63
2022/01/27 04:35:43;;;;;;;17.87;11.00;;;2.80;99.90;;;3.56;100.00;-19848.03;5033450;28;20788;-64
2022/01/27 04:41:10;;;;;;;17.80;10.83;;;2.80;99.90;;;3.61;100.00;-19849.75;5024503;28;20239;-63
2022/01/27 04:43:44;;;;;;;16.27;10.10;;;2.80;99.90;;;3.65;100.00;-19851.28;5032915;28;20320;-64
2022/01/27 04:46:23;;;;;;;17.63;10.43;;;2.80;99.90;;;3.57;100.00;-19848.53;5016650;28;20234;-63
2022/01/27 04:48:54;;;;;;;17.03;9.70;;;2.80;99.90;;;3.58;100.00;-19848.72;5013451;28;20238;-64
2022/01/27 04:51:24;;;;;;;17.03;10.93;;;2.80;99.90;;;3.55;100.00;-19847.69;5013628;28;20281;-63
2022/01/27 04:53:58;;;;;;;13.40;9.27;;;2.80;99.90;;;3.57;100.00;-19848.38;5013703;28;20237;-63
2022/01/27 04:56:28;;;;;;;14.87;9.30;;;2.80;99.90;;;3.55;100.00;-19847.69;5033112;28;20259;-63
2022/01/27 04:59:00;;;;;;;16.93;10.20;;;2.80;99.90;;;3.55;100.00;-19847.69;5016075;28;20237;-63
2022/01/27 05:01:35;;;;;;;18.37;11.20;;;2.80;99.90;;;3.59;100.00;-19849.06;5013448;28;20241;-63
2022/01/27 05:04:08;;;;;;;17.60;10.90;;;2.80;99.90;;;3.56;100.00;-19848.22;5013190;28;20293;-64
2022/01/27 05:06:37;;;;;;;19.43;11.10;;;2.80;99.90;;;3.65;100.00;-19851.13;5013148;28;20715;-67
2022/01/27 05:09:05;;;;;;;19.60;10.67;;;2.80;99.90;;;3.63;100.00;-19850.59;5013254;28;20224;-67
2022/01/27 05:11:36;;;;;;;17.10;11.10;;;2.80;99.90;;;3.62;100.00;-19850.25;5013377;28;20302;-67
2022/01/27 05:14:11;;;;;;;18.60;10.97;;;2.80;99.90;;;3.52;100.00;-19846.66;5012969;28;20227;-66
2022/01/27 05:16:41;;;;;;;19.77;12.03;;;2.80;99.90;;;3.36;100.00;-19841.19;5007652;28;20238;-66
2022/01/27 05:19:10;;;;;;;20.43;11.57;;;2.70;99.90;;;3.45;100.00;-19844.28;5013070;28;20224;-66
2022/01/27 05:21:38;;;;;;;16.30;10.73;;;2.70;99.90;;;3.49;100.00;-19845.81;5012912;28;20258;-67
2022/01/27 05:24:07;;;;;;;21.07;12.03;;;2.70;99.90;;;3.54;100.00;-19847.53;5011837;28;20260;-67
2022/01/27 05:26:38;;;;;;;20.83;12.27;;;2.70;99.90;;;3.54;100.00;-19847.34;5013390;28;20194;-67
2022/01/27 05:29:09;;;;;;;18.83;11.70;;;2.80;99.90;;;3.53;100.00;-19847.19;5012527;28;20699;-66
2022/01/27 05:31:40;;;;;;;19.93;12.03;;;2.80;99.90;;;3.54;100.00;-19847.53;5012824;28;20722;-67
2022/01/27 05:34:09;;;;;;;18.97;11.57;;;2.80;99.90;;;3.42;100.00;-19843.25;5012688;28;20230;-67
2022/01/27 05:36:37;;;;;;;20.67;13.00;;;2.70;99.90;;;3.59;100.00;-19849.06;5012732;28;20220;-66
2022/01/27 05:39:06;;;;;;;20.90;12.90;;;2.70;99.90;;;3.42;100.00;-19843.25;5012564;28;20223;-66
2022/01/27 05:41:34;;;;;;;21.30;12.80;;;2.80;99.90;;;3.56;100.00;-19848.03;5012775;28;20210;-66
2022/01/27 05:44:02;;;;;;;20.60;12.77;;;2.70;99.90;;;3.52;100.00;-19846.84;5012410;28;20241;-67
2022/01/27 05:46:30;;;;;;;19.23;12.27;;;2.80;99.90;;;3.51;100.00;-19846.31;5012638;28;20238;-67
2022/01/27 05:49:00;;;;;;;18.17;12.20;;;2.80;99.90;;;3.42;100.00;-19843.41;5012535;28;20314;-67
2022/01/27 05:51:28;;;;;;;18.67;11.17;;;2.70;99.90;;;3.53;100.00;-19847.19;5012209;28;20602;-67
2022/01/27 05:53:56;;;;;;;18.93;12.77;;;2.70;99.90;;;3.58;100.00;-19848.91;5012825;28;20662;-67
2022/01/27 05:56:24;;;;;;;20.63;13.17;;;2.70;99.90;;;3.65;100.00;-19851.13;5012671;28;20245;-66
2022/01/27 05:58:52;;;;;;;17.87;11.30;;;2.80;99.90;;;3.68;100.00;-19852.31;5012689;28;20223;-68
2022/01/27 06:01:20;;;;;;;19.47;11.57;;;2.90;99.90;;;3.70;100.00;-19852.81;5012389;28;20262;-70
2022/01/27 06:03:49;;;;;;;18.30;10.67;;;2.80;99.90;;;3.47;100.00;-19844.97;5012941;28;20222;-68
2022/01/27 06:06:18;;;;;;;16.90;11.33;;;2.80;99.90;;;3.58;100.00;-19848.72;5012513;28;20653;-67
2022/01/27 06:08:46;;;;;;;17.57;11.00;;;2.80;99.90;;;3.56;100.00;-19848.03;5012776;28;20235;-66
2022/01/27 06:11:14;;;;;;;16.30;10.17;;;2.80;99.90;;;3.49;100.00;-19845.63;5011931;28;20252;-67
2022/01/27 06:13:43;;;;;;;16.60;10.33;;;2.80;99.90;;;3.65;100.00;-19851.13;5012185;28;20367;-67
2022/01/27 06:16:12;;;;;;;15.13;10.33;;;2.80;99.90;;;3.67;100.00;-19851.97;5016856;28;20670;-66
2022/01/27 06:18:41;;;;;;;16.93;10.80;;;2.90;99.90;;;3.49;100.00;-19845.63;5012169;28;20222;-67
2022/01/27 06:21:12;;;;;;;16.93;10.33;;;2.80;99.90;;;3.59;100.00;-19849.06;5012032;28;20198;-67
2022/01/27 06:23:41;;;;;;;16.63;10.80;;;2.80;99.90;;;3.53;100.00;-19847.00;5012276;28;20187;-67
2022/01/27 06:26:09;;;;;;;14.50;10.43;;;2.80;99.90;;;3.49;100.00;-19845.81;5011184;28;20309;-67
2022/01/27 06:28:38;;;;;;;15.27;10.00;;;2.80;99.90;;;3.44;100.00;-19843.94;5011449;28;20558;-66
2022/01/27 06:31:06;;;;;;;16.83;10.67;;;2.70;99.90;;;3.37;100.00;-19841.72;5012398;28;20313;-68
2022/01/27 06:33:34;;;;;;;15.03;10.53;;;2.70;99.90;;;3.45;100.00;-19844.28;5012321;28;20711;-67
2022/01/27 06:36:02;;;;;;;16.07;10.67;;;2.70;99.90;;;3.46;100.00;-19844.63;5012208;28;20293;-67
2022/01/27 06:38:30;;;;;;;16.57;9.97;;;2.70;99.90;;;3.48;100.00;-19845.31;5012956;28;20222;-67
2022/01/27 06:40:59;;;;;;;15.70;9.87;;;2.70;99.90;;;3.53;100.00;-19847.00;5011942;28;20717;-67
2022/01/27 06:43:27;;;;;;;12.13;8.83;;;2.70;99.90;;;3.53;100.00;-19847.19;5012324;28;20461;-67
2022/01/27 06:45:56;;;;;;;15.63;9.63;;;2.70;99.90;;;3.54;100.00;-19847.34;5011904;28;20780;-67
2022/01/27 06:48:24;;;;;;;11.97;8.70;;;2.80;99.90;;;3.56;100.00;-19848.22;5012390;28;20306;-67
2022/01/27 06:50:54;;;;;;;15.00;9.37;;;2.80;99.90;;;3.45;100.00;-19844.28;5012452;28;20249;-68
2022/01/27 06:53:24;;;;;;;15.10;9.53;;;2.70;99.90;;;3.58;100.00;-19848.91;5031876;28;20198;-68
2022/01/27 06:55:54;;;;;;;16.47;9.63;;;2.80;99.90;;;3.51;100.00;-19846.50;5015338;28;20700;-67
2022/01/27 06:58:23;;;;;;;15.43;9.90;;;2.80;99.90;;;3.52;100.00;-19846.66;5011922;28;20432;-66
2022/01/27 07:00:51;;;;;;;13.87;9.67;;;2.80;99.90;;;3.46;100.00;-19844.63;5011774;28;20317;-63
2022/01/27 07:03:19;;;;;;;13.93;9.80;;;2.80;99.90;;;3.56;100.00;-19848.03;5011390;28;20257;-64
2022/01/27 07:05:49;;;;;;;15.07;10.23;;;2.80;99.90;;;3.57;100.00;-19848.38;5011957;28;20195;-63
2022/01/27 07:08:17;;;;;;;15.53;10.83;;;2.80;99.90;;;3.53;100.00;-19847.00;5011471;28;20648;-63
2022/01/27 07:10:45;;;;;;;14.23;10.23;;;2.80;99.90;;;3.54;100.00;-19847.34;5013869;28;20281;-62
2022/01/27 07:13:13;;;;;;;17.17;11.97;;;2.80;99.90;;;3.53;100.00;-19847.00;5031056;28;20225;-63
2022/01/27 07:15:42;;;;;;;16.40;10.30;;;2.80;99.90;;;3.47;100.00;-19844.97;5011808;28;20302;-62
2022/01/27 07:18:10;;;;;;;14.60;10.17;;;2.80;99.90;;;3.59;100.00;-19849.22;4992180;28;20474;-63
2022/01/27 07:20:38;;;;;;;16.00;10.17;;;2.80;99.90;;;3.57;100.00;-19848.53;4992499;28;20207;-64
2022/01/27 07:23:08;;;;;;;15.40;10.30;;;2.90;99.90;;;3.54;100.00;-19847.53;4991921;28;20219;-64
2022/01/27 07:25:37;;;;;;;15.10;9.73;;;2.80;99.90;;;3.63;100.00;-19850.59;5011427;28;20288;-64
2022/01/27 07:28:05;;;;;;;15.63;10.57;;;2.90;99.90;;;3.63;100.00;-19850.44;5011128;28;20678;-63
2022/01/27 07:30:34;;;;;;;16.47;10.33;;;2.80;99.90;;;3.61;100.00;-19849.75;5011442;28;20674;-62
2022/01/27 07:33:03;;;;;;;17.47;10.83;;;2.80;99.90;;;3.57;100.00;-19848.38;5010474;28;20230;-62
2022/01/27 07:35:31;;;;;;;13.70;9.30;;;2.80;99.90;;;3.53;100.00;-19847.00;4992414;28;20244;-63
2022/01/27 07:38:00;;;;;;;15.87;9.67;;;2.80;99.90;;;3.54;100.00;-19847.34;4991622;28;20265;-63
2022/01/27 07:40:30;;;;;;;14.00;9.73;;;2.80;99.90;;;3.54;100.00;-19847.53;4991763;28;20289;-62
2022/01/27 07:43:16;;;;;;;14.50;8.97;;;2.80;99.90;;;3.61;100.00;-19849.75;4991568;28;20350;-62
2022/01/27 07:45:44;;;;;;;14.70;9.47;;;2.80;99.90;;;3.52;100.00;-19846.84;4991007;28;20232;-63
2022/01/27 07:48:13;;;;;;;16.47;10.40;;;2.80;99.90;;;3.62;100.00;-19850.09;4991772;28;20218;-63
2022/01/27 07:50:41;;;;;;;16.20;9.83;;;2.80;99.90;;;3.69;100.00;-19852.66;4992224;28;20617;-62
2022/01/27 07:53:09;;;;;;;13.60;9.60;;;2.90;99.90;;;3.55;100.00;-19847.69;5003370;28;20247;-63
2022/01/27 07:55:37;;;;;;;14.27;10.07;;;2.80;99.90;;;3.59;100.00;-19849.06;5011062;28;20613;-62
2022/01/27 07:58:05;;;;;;;15.00;9.97;;;2.90;99.90;;;3.58;100.00;-19848.91;5010922;28;20260;-63
2022/01/27 08:00:34;;;;;;;16.33;9.93;;;2.80;99.90;;;3.55;100.00;-19847.88;5011045;28;20765;-62
2022/01/27 08:03:02;;;;;;;16.57;10.93;;;2.90;99.90;;;3.71;100.00;-19853.34;5010915;28;20597;-63
2022/01/27 08:05:31;;;;;;;15.23;10.17;;;2.90;99.90;;;3.58;100.00;-19848.72;5011567;28;20214;-63
2022/01/27 08:07:59;;;;;;;16.67;10.83;;;2.90;99.90;;;3.61;100.00;-19849.91;5010099;28;20822;-63
2022/01/27 08:10:27;;;;;;;17.00;10.87;;;2.90;99.90;;;3.72;100.00;-19853.50;5010547;28;20286;-62
2022/01/27 08:12:55;;;;;;;16.00;10.63;;;2.90;99.90;;;3.63;100.00;-19850.59;5010235;28;20301;-62
2022/01/27 08:15:23;;;;;;;16.27;11.00;;;2.90;99.90;;;3.72;100.00;-19853.50;5009957;28;20334;-63
2022/01/27 08:17:52;;;;;;;16.53;10.97;;;2.90;99.90;;;3.59;100.00;-19849.06;5010705;28;20203;-63
2022/01/27 08:20:20;;;;;;;17.20;10.80;;;2.90;99.90;;;3.61;100.00;-19849.91;5010581;28;20217;-62
2022/01/27 08:22:50;;;;;;;14.77;10.20;;;2.90;99.90;;;3.65;100.00;-19851.28;5009844;28;20250;-63
2022/01/27 08:25:20;;;;;;;15.70;9.90;;;2.90;99.90;;;3.64;100.00;-19850.78;5009769;28;20252;-61
2022/01/27 08:27:53;;;;;;;16.73;10.57;;;2.90;99.90;;;3.55;100.00;-19847.88;5009838;28;20733;-61
2022/01/27 08:30:26;;;;;;;16.33;10.37;;;2.80;99.90;;;3.71;100.00;-19853.34;5010010;28;20253;-63
2022/01/27 08:32:58;;;;;;;16.40;10.10;;;2.90;99.90;;;3.76;100.00;-19854.88;5010103;28;20203;-63
2022/01/27 08:35:27;;;;;;;18.03;10.73;;;2.90;99.90;;;3.70;100.00;-19853.00;5010640;28;20276;-62
2022/01/27 08:37:57;;;;;;;16.60;11.07;;;2.90;99.90;;;3.87;100.00;-19858.63;5009358;28;20234;-62
2022/01/27 08:40:25;;;;;;;14.30;9.83;;;3.00;99.90;;;4.01;100.00;-19863.25;5009522;28;20223;-63
2022/01/27 08:43:09;;;;;;;15.83;10.07;;;3.10;99.90;;;3.97;100.00;-19862.06;5009114;28;20228;-63
2022/01/27 08:45:39;;;;;;;14.87;9.53;;;3.10;99.90;;;4.02;100.00;-19863.59;5009623;28;20220;-63
2022/01/27 08:48:10;;;;;;;18.60;10.47;;;3.20;99.90;;;4.11;100.00;-19866.66;5009588;28;20630;-63
2022/01/27 08:50:38;;;;;;;14.77;9.90;;;3.30;99.90;;;4.12;100.00;-19867.00;5010223;28;20211;-63
2022/01/27 08:53:08;;;;;;;17.07;10.53;;;3.30;99.90;;;4.03;100.00;-19863.94;5010119;28;20226;-63
2022/01/27 08:55:36;;;;;;;17.00;10.87;;;3.20;99.90;;;3.99;100.00;-19862.72;5010613;28;20256;-63
2022/01/27 08:58:05;;;;;;;16.80;11.20;;;3.30;99.90;;;3.88;100.00;-19858.97;5011911;28;20230;-63
2022/01/27 09:00:33;;;;;;;16.87;11.50;;;3.20;99.90;;;3.82;100.00;-19856.75;5014424;28;20231;-63
2022/01/27 09:03:01;;;;;;;18.03;11.67;;;3.10;99.90;;;4.04;100.00;-19864.44;5013555;28;20257;-63
2022/01/27 09:05:29;;;;;;;17.43;11.37;;;3.20;99.90;;;3.92;100.00;-19860.34;5012729;28;20503;-66
2022/01/27 09:07:57;;;;;;;18.40;11.47;;;3.10;99.90;;;3.90;100.00;-19859.50;5010142;28;20196;-64
2022/01/27 09:10:31;;;;;;;17.67;11.73;;;3.10;99.90;;;4.01;100.00;-19863.25;5010164;28;20261;-65
2022/01/27 09:13:00;;;;;;;19.13;11.97;;;3.10;99.90;;;4.06;100.00;-19864.97;5011258;28;20199;-65
2022/01/27 09:15:29;;;;;;;16.73;10.20;;;3.20;99.90;;;4.04;100.00;-19864.44;5010856;28;20253;-65
2022/01/27 09:17:59;;;;;;;16.33;10.80;;;3.20;99.90;;;4.04;100.00;-19864.44;5010701;28;20269;-64
2022/01/27 09:20:28;;;;;;;15.63;10.80;;;3.20;99.90;;;4.06;100.00;-19865.13;5010744;28;20365;-62
2022/01/27 09:22:58;;;;;;;17.67;11.40;;;3.20;99.90;;;4.03;100.00;-19863.94;5010080;28;20255;-62
2022/01/27 09:25:32;;;;;;;17.20;11.23;;;3.20;99.90;;;4.14;100.00;-19867.69;5010736;28;20240;-62
2022/01/27 09:28:02;;;;;;;16.00;10.93;;;3.30;99.90;;;4.17;100.00;-19868.72;5009879;28;20183;-61
2022/01/27 09:30:30;;;;;;;15.93;11.17;;;3.30;99.90;;;4.14;100.00;-19867.88;5009758;28;20271;-63
2022/01/27 09:32:58;;;;;;;18.33;10.87;;;3.30;99.90;;;4.18;100.00;-19869.06;5010089;28;20225;-63
2022/01/27 09:35:27;;;;;;;17.73;11.13;;;3.30;99.90;;;4.09;100.00;-19865.97;5010002;28;20300;-64
2022/01/27 09:37:56;;;;;;;16.80;11.00;;;3.30;99.90;;;3.98;100.00;-19862.41;5009796;28;20282;-65
2022/01/27 09:40:26;;;;;;;16.47;10.30;;;3.20;99.90;;;4.17;100.00;-19868.72;5009853;28;20218;-63
2022/01/27 09:42:55;;;;;;;15.30;10.60;;;3.30;99.90;;;4.08;100.00;-19865.81;5010086;28;20244;-63
2022/01/27 09:45:25;;;;;;;19.07;11.13;;;3.30;99.90;;;4.15;100.00;-19868.03;4994901;28;20289;-64
2022/01/27 09:47:59;;;;;;;18.87;10.90;;;3.30;99.90;;;4.36;100.00;-19875.22;4996816;28;20228;-62
2022/01/27 09:50:47;;;;;;;17.83;11.07;;;3.40;99.90;;;4.23;100.00;-19870.94;5019664;28;20318;-63
2022/01/27 09:53:16;;;;;;;19.33;10.37;;;3.40;99.90;;;4.26;100.00;-19871.78;5010100;28;20272;-61
2022/01/27 09:55:46;;;;;;;16.87;10.33;;;3.40;99.90;;;4.39;100.00;-19876.25;5006123;28;20285;-63
2022/01/27 09:58:14;;;;;;;15.97;10.63;;;3.50;99.90;;;4.43;100.00;-19877.78;5026631;28;20232;-60
2022/01/27 10:00:43;;;;;;;16.60;10.63;;;3.60;99.90;;;4.29;100.00;-19872.81;5009592;28;20236;-61
2022/01/27 10:03:17;;;;;;;17.90;10.80;;;3.50;99.90;;;4.40;100.00;-19876.75;5009467;28;20190;-60
2022/01/27 10:05:46;;;;;;;18.40;10.87;;;3.60;99.90;;;4.39;100.00;-19876.25;5009968;28;20299;-65
2022/01/27 10:08:19;;;;;;;17.43;11.60;;;3.50;99.90;;;4.38;100.00;-19876.06;5009257;28;20228;-64
2022/01/27 10:10:53;;;;;;;19.37;12.07;;;3.50;99.90;;;4.52;100.00;-19880.84;5008184;28;20261;-69
2022/01/27 10:13:32;;;;;;;18.97;10.97;;;3.60;99.90;;;4.62;100.00;-19884.09;5009074;28;20252;-71
2022/01/27 10:16:01;;;;;;;16.53;10.30;;;3.70;99.90;;;4.64;100.00;-19884.97;5019835;28;20603;-78
2022/01/27 10:18:35;;;;;;;21.27;11.93;;;3.70;99.90;;;4.71;100.00;-19887.34;5031034;28;20227;-78
2022/01/27 10:21:06;;;;;;;18.73;11.50;;;3.80;99.90;;;4.78;100.00;-19889.56;5029571;28;20235;-71
2022/01/27 10:23:38;;;;;;;17.33;10.60;;;3.80;99.90;;;4.66;100.00;-19885.63;5029453;28;20193;-58
2022/01/27 10:26:21;;;;;;;18.83;11.40;;;3.80;99.90;;;4.45;100.00;-19878.47;5028727;28;20229;-67
2022/01/27 10:29:00;;;;;;;19.00;12.30;;;3.70;99.90;;;4.49;100.00;-19879.81;5028155;28;20259;-70
2022/01/27 10:31:28;;;;;;;18.73;11.33;;;3.70;99.90;;;4.79;100.00;-19890.09;5028505;28;20285;-67
2022/01/27 10:34:01;;;;;;;17.33;11.07;;;3.70;99.90;;;4.81;100.00;-19890.78;5028533;28;20419;-68
2022/01/27 10:36:32;;;;;;;18.37;11.50;;;3.80;99.90;;;4.82;100.00;-19891.09;5028592;28;20235;-62